Mount Wilson, Pennsylvania
Current Conditions -  °F | °C
As of 11:16 PM on Sunday 23 Nov 2014 (Local Time) from KMUI Reporting Station
Light Rain Light Rain  
Wind Chill: 41°   Ceiling: 800
Heat Index: 45°   Visibility: 4mi
Dew Point: 43°   Wind: 6mph
Humidity: 93%   Direction: 50°NE
Pressure: 29.91"   Gusts: NA
Location:  40.2957°N, 76.4189°W
Report Text: KMUI 240416Z AUTO 05005KT 4SM -RA BR BKN008 OVC013 07/06 A2991 RMK AO2 CIG 008V011 $
Loading
Personal Weather Stations






























Interactive Weather Map New forecast layout! Learn more

10-Day Weather Forecast

Advertisements
Track Severe Weather on mobile